UNR Ag. Experiment Farm, Sparks, Nevada Weather observations

Data are for 10 minute period ending at time listed.
 Day   Time   Solar   Ave.   Ave.  Ave.  Vector  Max.   Baro.   Total    
  of    of     Rad.   Air    Rel.  Wind   Wind   Wind  Press.  Precip.   
Year   Day            Temp.  Hum.  Speed  Dir.   Gust                    
2016   (PST)  Kw/m2    F      %     mph   deg.    mph    mb.     in.     
-------------------------------------------------------------------------
 148    2:30   0.00   46.2    78    1.5   198     3.2   865.7    0.00 
 148    2:40   0.00   43.6    80    0.3   288     1.8   865.7    0.00 
 148    2:50   0.00   43.6    84    1.4   288     3.3   865.7    0.00 
 148    3:00   0.00   43.2    84    2.3   175     3.5   865.7    0.00 
 148    3:10   0.00   44.3    84    2.8   210     3.7   865.7    0.00 
 148    3:20   0.00   43.9    83    2.3   198     3.1   865.8    0.00 
 148    3:30   0.00   43.9    83    1.4   206     3.1   865.8    0.00 
 148    3:40   0.00   44.2    83    1.8   205     2.3   865.8    0.00 
 148    3:50   0.00   44.1    83    1.1   204     1.5   865.8    0.00 
 148    4:00   0.00   43.0    82    0.4   202     1.1   865.9    0.00 
 148    4:10   0.00   41.6    86    0.2   201     0.9   865.9    0.00 
 148    4:20   0.00   41.3    88    1.6   124     2.7   865.9    0.00 
 148    4:30   0.00   42.1    88    1.8   148     2.7   866.0    0.00 
 148    4:40   0.00   41.7    87    0.8   205     2.0   866.0    0.00 
 148    4:50   0.01   42.7    88    1.7   251     2.2   866.0    0.00 
 148    5:00   0.01   42.3    87    0.9   162     1.8   866.0    0.00 
 148    5:10   0.04   41.7    87    0.2   149     1.3   866.0    0.00 
 148    5:20   0.06   42.7    88    0.4   154     1.2   866.1    0.00 
 148    5:30   0.08   43.6    87    1.6   150     2.3   866.2    0.00 
 148    5:40   0.10   44.8    86    0.4   158     1.8   866.2    0.00 
 148    5:50   0.12   46.3    84    0.4   203     1.1   866.4    0.00 
 148    6:00   0.15   47.7    80    1.2   206     1.9   866.5    0.00 
 148    6:10   0.17   49.2    76    1.0   193     2.3   866.4    0.00 
 148    6:20   0.20   51.3    70    0.1   155     0.7   866.3    0.00 
 148    6:30   0.23   53.4    65    1.0    96     2.3   866.3    0.00 
 148    6:40   0.25   54.8    62    0.2   143     1.5   866.3    0.00 
 148    6:50   0.28   55.7    60    1.2    53     2.3   866.3    0.00 
 148    7:00   0.31   55.5    58    0.7   357     2.3   866.2    0.00 
 148    7:10   0.34   55.5    58    1.1   329     2.3   866.1    0.00 
 148    7:20   0.37   56.7    55    0.9     6     2.4   866.1    0.00 
 148    7:30   0.40   58.0    50    1.4    69     3.4   866.1    0.00 
 148    7:40   0.43   58.1    50    1.5    65     4.2   866.0    0.00 
 148    7:50   0.46   59.0    48    1.8    42     4.6   866.0    0.00 
 148    8:00   0.48   59.2    45    1.9    55     4.2   865.9    0.00 
 148    8:10   0.51   59.5    43    3.1    40     6.0   865.9    0.00 
 148    8:20   0.54   60.8    39    1.7    85     4.3   865.9    0.00 
 148    8:30   0.57   61.0    40    2.6    11     6.4   865.9    0.00 
 148    8:40   0.59   60.8    39    2.0    15     5.8   866.0    0.00 
 148    8:50   0.62   61.1    37    2.3   355     6.1   866.0    0.00 
 148    9:00   0.64   62.6    37    2.5    63     6.5   866.0    0.00 
 148    9:10   0.67   63.1    34    2.2    69     4.9   865.9    0.00 
 148    9:20   0.69   63.1    35    1.7   327     4.3   865.9    0.00 
 148    9:30   0.71   63.7    34    2.3    24     5.0   865.9    0.00 
 148    9:40   0.73   64.3    34    2.5    50     5.9   865.7    0.00 
 148    9:50   0.75   65.1    34    2.6    48     5.9   865.7    0.00 
 148   10:00   0.77   65.2    32    2.2    56     5.7   865.7    0.00 
 148   10:10   0.78   65.2    32    3.5    63     6.9   865.6    0.00 
 148   10:20   0.80   65.7    31    3.4   174     6.5   865.5    0.00 
 148   10:30   0.82   65.8    33    1.8   336     3.7   865.4    0.00 
 148   10:40   0.83   66.2    31    2.3   246     7.0   865.3    0.00 
 148   10:50   0.84   66.1    30    3.7   188     7.9   865.2    0.00 
 148   11:00   0.86   67.3    30    4.9   151     8.8   865.1    0.00 
 148   11:10   0.86   67.2    29    4.0   155     8.4   864.9    0.00 
 148   11:20   0.87   67.0    31    3.1   346     6.7   864.7    0.00 
 148   11:30   0.88   68.4    30    1.6   243     4.7   864.5    0.00 
 148   11:40   0.89   69.4    29    2.9   113     6.4   864.4    0.00 
 148   11:50   0.90   69.2    29    2.0   147     5.8   864.3    0.00 
 148   12:00   0.90   69.8    30    3.9    62     8.3   864.1    0.00 
 148   12:10   0.90   68.7    30    3.7    42     8.6   864.0    0.00 
 148   12:20   0.90   69.4    31    3.6    61     8.1   863.8    0.00 
 148   12:30   0.90   71.0    28    3.2   122     9.0   863.6    0.00 
 148   12:40   0.90   70.9    29    5.2   199    10.4   863.4    0.00 
 148   12:50   0.92   72.9    27    2.5    69     8.2   863.3    0.00 
 148   13:00   0.96   72.5    26    3.3    98     6.9   863.2    0.00 
 148   13:10   0.94   72.6    25    4.4    94    10.2   862.9    0.00 
 148   13:20   0.72   72.4    27    4.5   316     9.0   862.8    0.00 
 148   13:30   0.29   70.3    30    7.2     9    13.3   862.7    0.00 
 148   13:40   0.28   69.2    31    6.9    34    13.2   862.6    0.00 
 148   13:50   0.52   71.0    29    6.8    43    10.5   862.4    0.00 
 148   14:00   0.48   71.5    27    4.2   321     9.1   862.3    0.00 
 148   14:10   0.78   71.7    30    6.7   306    12.4   862.3    0.00 
 148   14:20   0.52   71.6    30    7.8   310    16.1   862.3    0.00 
 148   14:30   0.71   72.2    29    6.3   325    10.7   862.3    0.00 
 148   14:40   0.84   73.3    28    5.5   355     9.8   862.1    0.00 
 148   14:50   0.74   74.0    28    4.4     0    13.4   862.0    0.00 
 148   15:00   0.65   74.0    23   10.4   268    17.3   862.0    0.00 
 148   15:10   0.77   73.6    23   10.1   285    17.2   861.9    0.00 
 148   15:20   0.74   73.3    25   11.1   306    18.9   861.9    0.00 
 148   15:30   0.71   73.8    24   10.9   286    18.6   861.9    0.00 
 148   15:40   0.65   73.3    26   10.3   299    20.0   861.8    0.00 
 148   15:50   0.62   72.7    25   11.4   297    18.3   861.8    0.00 
 148   16:00   0.59   73.1    26   11.4   285    19.3   861.9    0.00 
 148   16:10   0.56   72.8    26   10.8   283    15.3   861.8    0.00 
 148   16:20   0.54   72.6    26   12.1   280    18.5   861.8    0.00 
 148   16:30   0.50   72.2    28   10.3   291    17.8   861.8    0.00 
 148   16:40   0.46   71.8    26   13.1   284    20.5   861.8    0.00 
 148   16:50   0.43   71.8    27   10.6   278    15.2   861.8    0.00 
 148   17:00   0.40   71.6    28   10.0   278    18.3   861.7    0.00 
 148   17:10   0.36   71.4    28   11.0   282    15.9   861.7    0.00 
 148   17:20   0.33   71.0    28   10.5   283    14.8   861.6    0.00 
 148   17:30   0.30   70.6    28   12.5   276    20.7   861.7    0.00 
 148   17:40   0.27   70.4    28   10.9   277    16.2   861.7    0.00 
 148   17:50   0.24   70.5    27   10.7   261    16.6   861.8    0.00 
 148   18:00   0.20   70.5    26   10.6   260    20.9   861.8    0.00 
 148   18:10   0.17   69.3    29   10.3   277    14.5   861.8    0.00 
 148   18:20   0.14   68.9    28   12.1   283    18.3   861.9    0.00 
 148   18:30   0.12   68.1    29    9.9   284    16.1   862.0    0.00 
 148   18:40   0.09   67.5    29    9.3   290    15.5   862.1    0.00 
 148   18:50   0.06   66.8    29    9.2   292    14.8   862.1    0.00 
 148   19:00   0.04   66.8    28   10.3   291    15.9   862.2    0.00 
 148   19:10   0.01   65.3    31    7.4   312    12.0   862.4    0.00 
 148   19:20   0.01   63.1    35    8.3   349    12.4   862.4    0.00 
 148   19:30   0.00   62.7    33    8.9   356    14.8   862.4    0.00 
 148   19:40   0.00   61.7    35    7.0     2    11.3   862.6    0.00 
 148   19:50   0.00   60.8    37    6.9     1    10.6   862.7    0.00 
 148   20:00   0.00   59.8    41    5.5   351     7.8   862.9    0.00 
 148   20:10   0.00   58.4    45    5.7     6     8.0   863.0    0.00 
 148   20:20   0.00   57.5    49    5.5   348     7.5   863.0    0.00 
 148   20:30   0.00   56.6    51    5.8   328     8.2   863.0    0.00 
 148   20:40   0.00   56.6    51    6.1   319     9.4   863.2    0.00 
 148   20:50   0.00   57.4    50    5.6   328     9.5   863.3    0.00 
 148   21:00   0.00   56.4    52    2.3    39     4.8   863.4    0.00 
 148   21:10   0.00   55.4    54    3.9    80     5.6   863.5    0.00 
 148   21:20   0.00   55.5    54    4.7    78     7.8   863.5    0.00 
 148   21:30   0.00   56.9    51    3.7    36     6.4   863.6    0.00 
 148   21:40   0.00   56.4    52    3.4     2     5.4   863.6    0.00 
 148   21:50   0.00   54.9    57    1.8   107     4.2   863.7    0.00 
 148   22:00   0.00   53.4    62    2.7   119     4.1   863.7    0.00 
 148   22:10   0.00   52.7    62    2.3    54     4.5   863.8    0.00 
 148   22:20   0.00   53.9    60    1.9   346     3.3   863.8    0.00 
 148   22:30   0.00   55.1    56    1.2   307     2.0   863.8    0.00 
 148   22:40   0.00   56.2    54    2.5   328     3.6   863.8    0.00 
 148   22:50   0.00   55.2    56    2.6     4     3.5   863.9    0.00 
 148   23:00   0.00   54.1    57    2.5    87     4.1   864.0    0.00 
 148   23:10   0.00   53.2    59    0.2    94     1.4   864.0    0.00 
 148   23:20   0.00   52.1    62    1.3   243     3.2   864.1    0.00 
 148   23:30   0.00   53.0    60    3.2   273     4.2   864.1    0.00 
 148   23:40   0.00   50.3    63    0.2   283     1.2   864.1    0.00 
 148   23:50   0.00   49.3    71    0.4   271     1.5   864.1    0.00 
 149    0:00   0.00   48.7    76    1.6   112     2.2   864.1    0.00 
 149    0:10   0.00   48.7    77    0.5   101     1.7   864.1    0.00 
 149    0:20   0.00   47.7    78    1.8   236     4.4   864.2    0.00 
 149    0:30   0.00   46.3    80    2.7   158     3.5   864.3    0.00 
 149    0:40   0.00   45.8    81    2.4   219     3.3   864.3    0.00 
 149    0:50   0.00   46.6    79    0.2   341     1.9   864.3    0.00 
 149    1:00   0.00   45.7    79    1.5   169     2.7   864.3    0.00 
 149    1:10   0.00   45.5    81    1.3   185     2.5   864.3    0.00 
 149    1:20   0.00   45.9    79    1.8   179     2.9   864.4    0.00 
 149    1:30   0.00   45.3    80    2.2   174     3.1   864.3    0.00 
 149    1:40   0.00   46.7    77    1.1   186     1.9   864.3    0.00 
 149    1:50   0.00   47.2    75    1.7   134     2.5   864.3    0.00 
 149    2:00   0.00   46.7    74    0.9   240     2.5   864.2    0.00 
 149    2:10   0.00   44.8    77    1.1   200     2.3   864.3    0.00 
 149    2:20   0.00   43.7    82    0.2    97     1.2   864.3    0.00 

Return to Sparks, Nevada, UNR Ag Experiment Farm graphs page.


Western Regional Climate Center,wrcc@dri.edu